createdAt,value
2018-11-28T00:01:35.375Z,102341.86
2018-11-28T00:06:37.433Z,102350.48
2018-11-28T00:11:39.543Z,102341.19
2018-11-28T00:16:41.591Z,102338.30
2018-11-28T00:21:43.662Z,102331.08
2018-11-28T00:26:45.735Z,102333.89
2018-11-28T00:31:47.780Z,102332.42
2018-11-28T00:36:49.858Z,102332.06
2018-11-28T00:41:51.947Z,102328.17
2018-11-28T00:46:54.165Z,102322.97
2018-11-28T00:51:56.198Z,102321.13
2018-11-28T00:56:58.231Z,102330.79
2018-11-28T01:02:00.328Z,102332.42
2018-11-28T01:07:03.110Z,102334.02
2018-11-28T01:12:05.235Z,102324.94
2018-11-28T01:17:07.279Z,102331.89
2018-11-28T01:22:09.360Z,102344.06
2018-11-28T01:27:11.483Z,102342.33
2018-11-28T01:32:13.540Z,102344.27
2018-11-28T01:37:15.601Z,102338.86
2018-11-28T01:42:17.655Z,102350.22
2018-11-28T01:47:19.687Z,102346.57
2018-11-28T01:52:21.752Z,102341.58
2018-11-28T01:57:23.818Z,102337.27
2018-11-28T02:02:25.887Z,102338.63
2018-11-28T02:07:27.935Z,102339.67
2018-11-28T02:12:30.015Z,102333.62
2018-11-28T02:17:32.072Z,102323.70
2018-11-28T02:22:34.117Z,102331.78
2018-11-28T02:27:36.209Z,102314.95
2018-11-28T02:32:38.271Z,102311.67
2018-11-28T02:37:40.434Z,102326.69
2018-11-28T02:42:42.682Z,102309.98
2018-11-28T02:47:44.899Z,102310.43
2018-11-28T02:52:47.045Z,102309.05
2018-11-28T02:57:49.506Z,102318.75
2018-11-28T03:02:51.910Z,102328.22
2018-11-28T03:07:54.015Z,102330.09
2018-11-28T03:12:56.144Z,102337.66
2018-11-28T03:17:58.260Z,102340.60
2018-11-28T03:23:00.346Z,102329.16
2018-11-28T03:28:02.484Z,102337.66
2018-11-28T03:33:05.046Z,102338.96
2018-11-28T03:38:07.214Z,102348.05
2018-11-28T03:43:09.336Z,102346.31
2018-11-28T03:48:11.475Z,102338.64
2018-11-28T03:53:13.609Z,102333.00
2018-11-28T03:58:15.735Z,102329.91
2018-11-28T04:03:17.866Z,102330.97
2018-11-28T04:08:19.992Z,102322.86
2018-11-28T04:13:22.132Z,102318.55
2018-11-28T04:18:24.239Z,102322.13
2018-11-28T04:23:26.358Z,102305.95
2018-11-28T04:28:28.498Z,102306.26
2018-11-28T04:33:30.613Z,102311.69
2018-11-28T04:38:32.729Z,102301.13
2018-11-28T04:43:34.844Z,102302.36
2018-11-28T04:48:36.973Z,102302.05
2018-11-28T04:53:39.089Z,102305.89
2018-11-28T04:58:41.190Z,102297.36
2018-11-28T05:03:43.286Z,102313.36
2018-11-28T05:08:45.407Z,102294.98
2018-11-28T05:13:47.563Z,102295.66
2018-11-28T05:18:49.662Z,102307.73
2018-11-28T05:23:51.779Z,102317.66
2018-11-28T05:28:53.914Z,102330.08
2018-11-28T05:33:56.082Z,102315.19
2018-11-28T05:38:58.184Z,102316.74
2018-11-28T05:44:00.273Z,102331.32
2018-11-28T05:49:02.394Z,102324.22
2018-11-28T05:54:04.556Z,102325.13
2018-11-28T05:59:06.678Z,102323.80
2018-11-28T06:04:08.817Z,102321.87
2018-11-28T06:09:10.932Z,102332.05
2018-11-28T06:14:13.066Z,102335.05
2018-11-28T06:19:15.157Z,102329.20
2018-11-28T06:24:17.273Z,102334.58
2018-11-28T06:29:19.481Z,102337.38
2018-11-28T06:34:21.610Z,102340.85
2018-11-28T06:39:23.697Z,102337.77
2018-11-28T06:44:25.793Z,102337.33
2018-11-28T06:49:27.897Z,102337.75
2018-11-28T06:54:30.025Z,102345.70
2018-11-28T06:59:32.161Z,102345.75
2018-11-28T07:04:34.288Z,102348.27
2018-11-28T07:09:36.403Z,102355.61
2018-11-28T07:14:38.579Z,102349.81
2018-11-28T07:19:40.732Z,102364.91
2018-11-28T07:24:42.838Z,102358.45
2018-11-28T07:29:44.989Z,102371.08
2018-11-28T07:34:47.113Z,102367.94
2018-11-28T07:39:49.211Z,102366.75
2018-11-28T07:44:51.354Z,102360.11
2018-11-28T07:49:53.448Z,102348.75
2018-11-28T07:54:55.561Z,102353.13
2018-11-28T07:59:57.669Z,102355.72
2018-11-28T08:04:59.805Z,102346.50
2018-11-28T08:10:01.954Z,102342.16
2018-11-28T08:15:05.106Z,102346.27
2018-11-28T08:20:07.244Z,102331.14
2018-11-28T08:25:12.686Z,102318.77
2018-11-28T08:30:17.306Z,102330.58
2018-11-28T08:35:19.512Z,102338.59
2018-11-28T08:40:22.741Z,102327.94
2018-11-28T08:45:24.885Z,102349.30
2018-11-28T08:50:30.404Z,102338.06
2018-11-28T08:55:32.536Z,102344.00
2018-11-28T09:00:35.137Z,102320.80
2018-11-28T09:05:37.279Z,102329.61
2018-11-28T09:10:39.433Z,102334.28
2018-11-28T09:15:41.568Z,102345.62
2018-11-28T09:20:43.730Z,102341.25
2018-11-28T09:25:45.891Z,102346.16
2018-11-28T09:30:48.086Z,102342.59
2018-11-28T09:35:50.217Z,102337.81
2018-11-28T09:40:52.344Z,102334.86
2018-11-28T09:45:54.481Z,102325.91
2018-11-28T09:50:56.661Z,102322.95
2018-11-28T09:55:58.769Z,102294.67
2018-11-28T10:01:00.931Z,102302.10
2018-11-28T10:06:03.156Z,102288.80
2018-11-28T10:11:05.322Z,102294.18
2018-11-28T10:16:07.463Z,102296.52
2018-11-28T10:21:09.605Z,102294.66
2018-11-28T10:26:11.736Z,102272.48
2018-11-28T10:31:13.935Z,102275.33
2018-11-28T10:36:16.136Z,102264.48
2018-11-28T10:41:18.308Z,102258.33
2018-11-28T10:46:20.446Z,102251.67
2018-11-28T10:51:22.616Z,102247.20
2018-11-28T10:56:24.742Z,102237.23
2018-11-28T11:01:26.948Z,102232.84
2018-11-28T11:06:34.695Z,102217.67
2018-11-28T11:11:42.708Z,102216.74
2018-11-28T11:16:44.848Z,102206.33
2018-11-28T11:21:47.042Z,102208.88
2018-11-28T11:26:49.155Z,102216.52
2018-11-28T11:31:51.317Z,102197.61
2018-11-28T11:36:53.431Z,102196.29
2018-11-28T11:41:55.553Z,102190.98
2018-11-28T11:46:57.690Z,102199.06
2018-11-28T11:51:59.822Z,102181.66
2018-11-28T11:57:01.957Z,102189.20
2018-11-28T12:02:04.464Z,102178.39
2018-11-28T12:07:06.604Z,102183.34
2018-11-28T12:12:08.738Z,102181.87
2018-11-28T12:17:10.898Z,102159.83
2018-11-28T12:22:13.054Z,102156.98
2018-11-28T12:27:15.209Z,102158.01
2018-11-28T12:32:17.582Z,102147.40
2018-11-28T12:37:19.691Z,102164.53
2018-11-28T12:42:21.824Z,102135.44
2018-11-28T12:47:23.971Z,102139.98
2018-11-28T12:52:26.120Z,102138.48
2018-11-28T12:57:28.246Z,102133.12
2018-11-28T13:02:30.377Z,102125.56
2018-11-28T13:07:32.551Z,102124.17
2018-11-28T13:12:34.669Z,102125.15
2018-11-28T13:17:36.840Z,102112.84
2018-11-28T13:22:39.020Z,102107.38
2018-11-28T13:27:41.529Z,102100.78
2018-11-28T13:32:44.216Z,102111.81
2018-11-28T13:37:47.280Z,102117.97
2018-11-28T13:42:49.462Z,102096.84
2018-11-28T13:47:52.738Z,102088.69
2018-11-28T13:52:55.515Z,102076.48
2018-11-28T13:57:57.674Z,102088.03
2018-11-28T14:02:59.847Z,102098.72
2018-11-28T14:08:01.988Z,102087.89
2018-11-28T14:13:04.526Z,102071.00
2018-11-28T14:18:14.052Z,102046.99
2018-11-28T14:23:16.230Z,102048.17
2018-11-28T14:28:18.462Z,102061.55
2018-11-28T14:33:20.722Z,102060.03
2018-11-28T14:38:22.923Z,102059.41
2018-11-28T14:43:25.090Z,102041.84
2018-11-28T14:48:27.256Z,102048.31
2018-11-28T14:53:29.508Z,102046.98
2018-11-28T14:58:31.733Z,102024.03
2018-11-28T15:03:33.894Z,102006.17
2018-11-28T15:08:36.313Z,102035.59
2018-11-28T15:13:39.127Z,102009.31
2018-11-28T15:18:41.366Z,101989.72
2018-11-28T15:23:43.512Z,102007.42
2018-11-28T15:28:45.700Z,102010.77
2018-11-28T15:33:47.895Z,101997.85
2018-11-28T15:38:50.030Z,101996.24
2018-11-28T15:43:52.212Z,101977.22
2018-11-28T15:48:54.336Z,101982.19
2018-11-28T15:53:56.517Z,101978.17
2018-11-28T15:58:58.696Z,101975.38
2018-11-28T16:04:01.662Z,101978.08
2018-11-28T16:09:06.874Z,101970.93
2018-11-28T16:14:09.152Z,101952.65
2018-11-28T16:19:11.294Z,101954.20
2018-11-28T16:24:13.473Z,101969.89
2018-11-28T16:29:15.669Z,101963.34
2018-11-28T16:34:17.854Z,101957.62
2018-11-28T16:39:19.999Z,101965.54
2018-11-28T16:44:22.207Z,101969.25
2018-11-28T16:49:24.364Z,101954.03
2018-11-28T16:54:26.634Z,101949.30
2018-11-28T16:59:30.881Z,101931.67
2018-11-28T17:04:31.095Z,101923.41
2018-11-28T17:09:33.279Z,101912.89
2018-11-28T17:14:35.467Z,101909.39
2018-11-28T17:19:37.655Z,101907.84
2018-11-28T17:24:39.781Z,101915.16
2018-11-28T17:29:41.937Z,101907.34
2018-11-28T17:34:44.167Z,101898.73
2018-11-28T17:39:46.377Z,101890.75
2018-11-28T17:44:48.596Z,101876.05
2018-11-28T17:49:50.781Z,101874.59
2018-11-28T17:54:52.925Z,101877.34
2018-11-28T17:59:55.094Z,101857.05
2018-11-28T18:04:57.265Z,101866.31
2018-11-28T18:09:59.433Z,101848.28
2018-11-28T18:15:01.710Z,101827.96
2018-11-28T18:20:04.015Z,101826.34
2018-11-28T18:25:08.304Z,101817.73
2018-11-28T18:30:11.466Z,101817.64
2018-11-28T18:35:13.756Z,101832.93
2018-11-28T18:40:15.983Z,101835.17
2018-11-28T18:45:23.438Z,101847.47
2018-11-28T18:50:25.623Z,101855.81
2018-11-28T18:55:27.899Z,101850.63
2018-11-28T19:00:30.123Z,101839.34
2018-11-28T19:05:32.336Z,101834.23
2018-11-28T19:10:34.790Z,101827.56
2018-11-28T19:15:37.166Z,101819.33
2018-11-28T19:20:40.662Z,101821.38
2018-11-28T19:25:49.862Z,101818.02
2018-11-28T19:30:53.917Z,101804.96
2018-11-28T19:36:00.417Z,101785.08
2018-11-28T19:41:08.283Z,101768.20
2018-11-28T19:46:12.864Z,101771.08
2018-11-28T19:51:16.159Z,101772.25
2018-11-28T19:56:21.834Z,101763.48
2018-11-28T20:01:27.579Z,101764.27
2018-11-28T20:06:33.827Z,101764.37
2018-11-28T20:11:39.896Z,101757.80
2018-11-28T20:16:45.993Z,101742.64
2018-11-28T20:21:53.037Z,101741.20
2018-11-28T20:26:59.055Z,101747.07
2018-11-28T20:32:05.220Z,101725.78
2018-11-28T20:37:10.994Z,101738.26
2018-11-28T20:42:17.026Z,101732.78
2018-11-28T20:47:23.555Z,101717.48
2018-11-28T20:52:29.977Z,101695.66
2018-11-28T20:57:37.142Z,101692.98
2018-11-28T21:02:43.994Z,101691.82
2018-11-28T21:07:50.885Z,101687.31
2018-11-28T21:12:56.775Z,101688.40
2018-11-28T21:18:02.360Z,101686.77
2018-11-28T21:23:10.136Z,101700.81
2018-11-28T21:28:15.127Z,101672.56
2018-11-28T21:33:19.377Z,101680.54
2018-11-28T21:38:25.138Z,101669.64
2018-11-28T21:43:27.813Z,101677.87
2018-11-28T21:48:30.233Z,101673.20
2018-11-28T21:53:32.443Z,101671.58
2018-11-28T21:58:34.667Z,101670.23
2018-11-28T22:03:36.818Z,101652.65
2018-11-28T22:08:39.002Z,101637.49
2018-11-28T22:13:41.201Z,101622.80
2018-11-28T22:18:43.365Z,101627.02
2018-11-28T22:23:45.507Z,101625.31
2018-11-28T22:28:47.667Z,101635.19
2018-11-28T22:33:49.818Z,101618.44
2018-11-28T22:38:52.241Z,101591.02
2018-11-28T22:43:54.380Z,101588.33
2018-11-28T22:48:56.585Z,101590.34
2018-11-28T22:53:58.782Z,101580.33
2018-11-28T22:59:00.955Z,101597.92
2018-11-28T23:04:03.133Z,101579.63
2018-11-28T23:09:06.979Z,101587.13
2018-11-28T23:14:09.134Z,101575.41
2018-11-28T23:19:11.296Z,101579.78
2018-11-28T23:24:13.446Z,101582.03
2018-11-28T23:29:15.575Z,101569.23
2018-11-28T23:34:17.732Z,101562.64
2018-11-28T23:39:19.849Z,101548.87
2018-11-28T23:44:22.015Z,101526.20
2018-11-28T23:49:24.165Z,101532.81
2018-11-28T23:54:26.293Z,101518.78
2018-11-28T23:59:28.458Z,101521.38
